Time;durP1;ratioP1;P1;durP2;ratioP2;P2;SDS_P1;SDS_P2;PMS_P1;PMS_P2;Temp;Humidity;BMP_temperature;BMP_pressure;BME280_temperature;BME280_humidity;BME280_pressure;Samples;Min_cycle;Max_cycle;Signal;HPM_P1;HPM_P2
2022/08/18 00:00:44;;;;;;;14.23;12.75;;;17.90;99.90;;;;;;4886131;29;20045;-79
2022/08/18 00:03:10;;;;;;;14.20;12.82;;;17.90;99.90;;;;;;4882933;29;20205;-79
2022/08/18 00:05:37;;;;;;;16.77;12.48;;;17.90;99.90;;;;;;4862146;29;20053;-79
2022/08/18 00:08:04;;;;;;;14.05;12.65;;;17.80;99.90;;;;;;4860515;29;20414;-79
2022/08/18 00:10:31;;;;;;;13.98;12.63;;;17.80;99.90;;;;;;4882812;29;20048;-79
2022/08/18 00:12:57;;;;;;;14.50;12.50;;;17.90;99.90;;;;;;4864572;29;20047;-79
2022/08/18 00:15:23;;;;;;;14.93;13.32;;;17.90;99.90;;;;;;4888207;29;20490;-79
2022/08/18 00:17:48;;;;;;;13.48;12.07;;;17.90;99.90;;;;;;4895766;29;20044;-79
2022/08/18 00:20:22;;;;;;;14.45;12.60;;;18.00;99.90;;;;;;4882912;29;20043;-78
2022/08/18 00:22:48;;;;;;;13.50;12.18;;;17.90;99.90;;;;;;4875419;29;20057;-78
2022/08/18 00:25:16;;;;;;;12.85;11.45;;;18.00;99.90;;;;;;4876487;29;20501;-78
2022/08/18 00:27:42;;;;;;;13.27;11.98;;;18.00;99.90;;;;;;4868037;29;20139;-78
2022/08/18 00:30:11;;;;;;;14.23;12.57;;;18.00;99.90;;;;;;4883352;29;20063;-78
2022/08/18 00:32:41;;;;;;;14.43;12.52;;;18.00;99.90;;;;;;4876419;29;20069;-79
2022/08/18 00:35:12;;;;;;;13.63;12.20;;;18.00;99.90;;;;;;4876746;29;20037;-78
2022/08/18 00:37:41;;;;;;;20.05;11.02;;;18.00;99.90;;;;;;4883863;29;20458;-79
2022/08/18 00:40:10;;;;;;;12.90;11.65;;;18.00;99.90;;;;;;4867707;29;20044;-79
2022/08/18 00:42:53;;;;;;;13.48;12.07;;;18.00;99.90;;;;;;4876539;29;20097;-79
2022/08/18 00:45:26;;;;;;;13.67;12.17;;;18.00;99.90;;;;;;4861665;29;20454;-78
2022/08/18 00:47:51;;;;;;;12.38;11.23;;;18.00;99.90;;;;;;4886253;29;20417;-79
2022/08/18 00:50:26;;;;;;;13.68;11.80;;;18.00;99.90;;;;;;4885055;29;20033;-79
2022/08/18 00:53:00;;;;;;;12.82;11.63;;;18.10;99.90;;;;;;4860893;29;20057;-79
2022/08/18 00:55:28;;;;;;;13.48;12.07;;;18.00;99.90;;;;;;4883435;29;20041;-79
2022/08/18 00:58:01;;;;;;;13.27;11.85;;;18.10;99.90;;;;;;4879951;29;20044;-80
2022/08/18 01:00:27;;;;;;;12.75;11.55;;;18.10;99.90;;;;;;4884447;29;20049;-79
2022/08/18 01:02:56;;;;;;;13.02;11.73;;;18.10;99.90;;;;;;4860914;29;20072;-79
2022/08/18 01:05:25;;;;;;;12.60;11.30;;;18.10;99.90;;;;;;4882753;29;20041;-79
2022/08/18 01:07:51;;;;;;;15.57;12.93;;;18.00;99.90;;;;;;4876673;29;20065;-78
2022/08/18 01:10:19;;;;;;;13.52;12.13;;;18.10;99.90;;;;;;4881849;29;20033;-78
2022/08/18 01:12:48;;;;;;;12.48;11.27;;;18.10;99.90;;;;;;4879887;29;20505;-78
2022/08/18 01:15:16;;;;;;;15.73;12.27;;;18.00;99.90;;;;;;4875598;29;20127;-78
2022/08/18 01:21:49;;;;;;;14.00;12.55;;;18.00;99.90;;;;;;4888552;29;20048;-78
2022/08/18 01:23:26;;;;;;;15.15;13.55;;;18.00;99.90;;;;;;4884029;29;20044;-79
2022/08/18 01:26:02;;;;;;;12.43;11.25;;;18.00;99.90;;;;;;4889782;29;20405;-79
2022/08/18 01:28:35;;;;;;;13.50;12.18;;;18.00;99.90;;;;;;4894178;29;20060;-79
2022/08/18 01:31:02;;;;;;;14.43;12.80;;;18.10;99.90;;;;;;4883316;29;20045;-79
2022/08/18 01:33:31;;;;;;;14.77;13.02;;;18.10;99.90;;;;;;4884585;29;20084;-78
2022/08/18 01:36:01;;;;;;;14.18;12.68;;;18.10;99.90;;;;;;4862657;29;20118;-78
2022/08/18 01:38:27;;;;;;;13.70;11.95;;;18.10;99.90;;;;;;4865468;29;20053;-78
2022/08/18 01:40:53;;;;;;;13.93;12.52;;;18.10;99.90;;;;;;4874265;29;20405;-79
2022/08/18 01:43:19;;;;;;;13.52;12.32;;;18.10;99.90;;;;;;4884254;29;20032;-79
2022/08/18 01:45:46;;;;;;;13.52;12.23;;;18.10;99.90;;;;;;4879839;29;20074;-79
2022/08/18 01:48:12;;;;;;;12.60;11.35;;;18.00;99.90;;;;;;4878513;29;20197;-79
2022/08/18 01:50:40;;;;;;;13.30;12.00;;;18.10;99.90;;;;;;4887469;29;20049;-79
2022/08/18 01:53:06;;;;;;;14.20;12.77;;;18.10;99.90;;;;;;4884329;29;20041;-79
2022/08/18 01:55:37;;;;;;;14.02;12.68;;;18.10;99.90;;;;;;4863038;29;20049;-78
2022/08/18 01:58:05;;;;;;;13.15;11.82;;;18.10;99.90;;;;;;4878630;29;20045;-79
2022/08/18 02:00:31;;;;;;;15.05;13.65;;;18.10;99.90;;;;;;4871903;29;20486;-78
2022/08/18 02:02:58;;;;;;;13.75;12.43;;;18.10;99.90;;;;;;4890504;29;20092;-78
2022/08/18 02:05:36;;;;;;;12.88;11.77;;;18.10;99.90;;;;;;4898102;29;20044;-78
2022/08/18 02:08:03;;;;;;;14.15;12.85;;;18.10;99.90;;;;;;4897963;29;20072;-79
2022/08/18 02:10:29;;;;;;;13.60;12.27;;;18.10;99.90;;;;;;4881466;29;20049;-79
2022/08/18 02:12:55;;;;;;;15.40;13.90;;;18.10;99.90;;;;;;4878051;29;20045;-79
2022/08/18 02:15:20;;;;;;;13.82;12.40;;;18.10;99.90;;;;;;4869594;29;20043;-79
2022/08/18 02:17:46;;;;;;;14.68;13.27;;;18.10;99.90;;;;;;4889806;29;20032;-79
2022/08/18 02:20:16;;;;;;;15.23;13.82;;;18.10;99.90;;;;;;4871618;29;20093;-79
2022/08/18 02:22:42;;;;;;;15.45;13.57;;;18.10;99.90;;;;;;4878890;29;20049;-79
2022/08/18 02:25:09;;;;;;;15.07;13.48;;;18.10;99.90;;;;;;4879325;29;20420;-78
2022/08/18 02:27:34;;;;;;;14.30;13.00;;;18.10;99.90;;;;;;4878994;29;20041;-79
2022/08/18 02:30:04;;;;;;;17.33;12.90;;;18.20;99.90;;;;;;4885428;29;20134;-78
2022/08/18 02:32:31;;;;;;;14.82;13.43;;;18.10;99.90;;;;;;4889214;29;20040;-79
2022/08/18 02:34:57;;;;;;;14.88;13.38;;;18.20;99.90;;;;;;4886129;29;20510;-79
2022/08/18 02:37:22;;;;;;;16.00;14.30;;;18.20;99.90;;;;;;4878859;29;20041;-79
2022/08/18 02:39:48;;;;;;;15.63;13.93;;;18.20;99.90;;;;;;4885767;29;20111;-78
2022/08/18 02:42:15;;;;;;;15.40;13.90;;;18.20;99.90;;;;;;4869584;29;20049;-79
2022/08/18 02:44:40;;;;;;;15.55;14.10;;;18.20;99.90;;;;;;4884156;29;20521;-79
2022/08/18 02:47:06;;;;;;;16.20;14.70;;;18.10;99.90;;;;;;4887258;29;20041;-79
2022/08/18 02:49:32;;;;;;;15.63;14.02;;;18.20;99.90;;;;;;4888167;29;20044;-79
2022/08/18 02:51:57;;;;;;;17.05;14.30;;;18.10;99.90;;;;;;4889976;29;20054;-79
2022/08/18 02:54:24;;;;;;;15.35;13.95;;;18.10;99.90;;;;;;4881636;29;20124;-79
2022/08/18 02:56:51;;;;;;;15.60;13.05;;;18.10;99.90;;;;;;4884527;29;20521;-79
2022/08/18 02:59:19;;;;;;;16.00;14.30;;;18.20;99.90;;;;;;4877666;29;20055;-79
2022/08/18 03:01:50;;;;;;;19.13;14.40;;;18.20;99.90;;;;;;4886330;29;20402;-79
2022/08/18 03:04:19;;;;;;;16.73;14.25;;;18.10;99.90;;;;;;4862927;29;20055;-79
2022/08/18 03:06:45;;;;;;;15.52;13.93;;;18.20;99.90;;;;;;4862205;29;20402;-79
2022/08/18 03:09:12;;;;;;;15.05;13.40;;;18.20;99.90;;;;;;4867276;29;20045;-78
2022/08/18 03:11:38;;;;;;;17.08;14.20;;;18.20;99.90;;;;;;4888509;29;20104;-78
2022/08/18 03:14:04;;;;;;;14.75;13.32;;;18.20;99.90;;;;;;4887840;29;20037;-79
2022/08/18 03:16:31;;;;;;;15.65;14.05;;;18.10;99.90;;;;;;4883581;29;20044;-79
2022/08/18 03:18:58;;;;;;;15.82;14.05;;;18.20;99.90;;;;;;4865483;29;20045;-79
2022/08/18 03:21:26;;;;;;;15.82;13.43;;;18.20;99.90;;;;;;4889061;29;20045;-78
2022/08/18 03:23:54;;;;;;;15.48;13.07;;;18.20;99.90;;;;;;4890086;29;20048;-78
2022/08/18 03:26:22;;;;;;;15.70;14.02;;;18.20;99.90;;;;;;4867790;29;20491;-78
2022/08/18 03:28:49;;;;;;;15.65;12.98;;;18.20;99.90;;;;;;4878728;29;20415;-78
2022/08/18 03:31:17;;;;;;;14.73;13.20;;;18.20;99.90;;;;;;4888405;29;20040;-78
2022/08/18 03:33:44;;;;;;;15.15;13.57;;;18.20;99.90;;;;;;4896440;29;20521;-78
2022/08/18 03:36:16;;;;;;;14.95;13.35;;;18.20;99.90;;;;;;4888977;29;20053;-79
2022/08/18 03:38:44;;;;;;;14.82;13.32;;;18.20;99.90;;;;;;4860942;29;20040;-79
2022/08/18 03:41:12;;;;;;;14.82;13.40;;;18.10;99.90;;;;;;4888909;29;20406;-79
2022/08/18 03:43:38;;;;;;;15.43;13.85;;;18.20;99.90;;;;;;4887601;29;20422;-80
2022/08/18 03:46:08;;;;;;;13.52;12.25;;;18.20;99.90;;;;;;4889926;29;20131;-80
2022/08/18 03:48:35;;;;;;;14.60;13.20;;;18.00;99.90;;;;;;4887915;29;20045;-78
2022/08/18 03:51:15;;;;;;;14.57;13.07;;;18.20;99.90;;;;;;4888636;29;20040;-79
2022/08/18 03:53:41;;;;;;;15.55;13.77;;;18.20;99.90;;;;;;4896133;29;20068;-79
2022/08/18 03:56:14;;;;;;;15.90;14.25;;;18.10;99.90;;;;;;4890023;29;20463;-78
2022/08/18 03:58:51;;;;;;;15.73;13.40;;;18.10;99.90;;;;;;4884804;29;20506;-79
2022/08/18 04:01:19;;;;;;;14.98;13.15;;;18.10;99.90;;;;;;4888160;29;20098;-79
2022/08/18 04:03:46;;;;;;;14.60;13.10;;;18.10;99.90;;;;;;4895807;29;20049;-79
2022/08/18 04:06:17;;;;;;;13.98;12.55;;;18.10;99.90;;;;;;4884160;29;20089;-79
2022/08/18 04:08:43;;;;;;;14.02;12.63;;;18.10;99.90;;;;;;4870904;29;20481;-79
2022/08/18 04:11:09;;;;;;;15.05;13.45;;;18.10;99.90;;;;;;4887219;29;20037;-79
2022/08/18 04:13:36;;;;;;;13.70;12.30;;;18.00;99.90;;;;;;4888129;29;20044;-78
2022/08/18 04:16:01;;;;;;;14.10;12.70;;;18.10;99.90;;;;;;4895799;29;20083;-78
2022/08/18 04:18:28;;;;;;;14.57;13.00;;;18.10;99.90;;;;;;4882562;29;20076;-79
2022/08/18 04:20:54;;;;;;;15.30;12.48;;;18.10;99.90;;;;;;4880491;29;20480;-79
2022/08/18 04:23:20;;;;;;;14.30;12.52;;;18.10;99.90;;;;;;4895525;29;20087;-79
2022/08/18 04:25:54;;;;;;;13.15;11.85;;;18.10;99.90;;;;;;4870235;29;20045;-78
2022/08/18 04:28:19;;;;;;;14.00;12.50;;;18.10;99.90;;;;;;4882102;29;20089;-79
2022/08/18 04:30:45;;;;;;;14.07;12.77;;;18.00;99.90;;;;;;4878900;29;20040;-78
2022/08/18 04:33:10;;;;;;;14.70;13.02;;;18.10;99.90;;;;;;4872686;29;20540;-78
2022/08/18 04:35:36;;;;;;;15.48;12.40;;;18.10;99.90;;;;;;4887718;29;20040;-79
2022/08/18 04:38:02;;;;;;;14.27;12.77;;;18.10;99.90;;;;;;4892166;29;20048;-79
2022/08/18 04:40:28;;;;;;;14.65;13.15;;;18.10;99.90;;;;;;4879365;29;20055;-78
2022/08/18 04:42:54;;;;;;;13.52;12.32;;;18.10;99.90;;;;;;4856759;29;20037;-78
2022/08/18 04:45:19;;;;;;;14.57;13.05;;;18.10;99.90;;;;;;4861335;29;20045;-78
2022/08/18 04:47:45;;;;;;;15.55;14.05;;;18.10;99.90;;;;;;4876772;29;20049;-78
2022/08/18 04:50:11;;;;;;;14.38;13.05;;;18.10;99.90;;;;;;4881119;29;20529;-78
2022/08/18 04:55:21;;;;;;;14.43;13.02;;;18.00;99.90;;;;;;4884199;29;20084;-78
2022/08/18 04:57:46;;;;;;;15.05;13.60;;;18.10;99.90;;;;;;4894165;29;20049;-79
2022/08/18 05:00:12;;;;;;;14.90;13.40;;;18.00;99.90;;;;;;4869506;29;20093;-78
2022/08/18 05:02:39;;;;;;;13.77;12.45;;;18.00;99.90;;;;;;4876114;29;20045;-78
2022/08/18 05:05:05;;;;;;;13.48;12.18;;;18.10;99.90;;;;;;4880999;29;20032;-78
2022/08/18 05:07:31;;;;;;;14.23;12.18;;;18.00;99.90;;;;;;4870521;29;20067;-78
2022/08/18 05:09:57;;;;;;;13.45;11.73;;;18.10;99.90;;;;;;4878868;29;20041;-79
2022/08/18 05:12:23;;;;;;;13.95;12.60;;;18.10;99.90;;;;;;4881934;29;20037;-82
2022/08/18 05:14:49;;;;;;;14.15;12.75;;;18.10;99.90;;;;;;4884304;29;20081;-82
2022/08/18 05:17:15;;;;;;;14.13;12.63;;;18.10;99.90;;;;;;4872688;29;20041;-79
2022/08/18 05:19:42;;;;;;;14.18;12.77;;;18.10;99.90;;;;;;4873763;29;20391;-78
2022/08/18 05:22:09;;;;;;;13.68;12.38;;;18.10;99.90;;;;;;4868122;29;20087;-78
2022/08/18 05:24:35;;;;;;;14.90;13.35;;;18.00;99.90;;;;;;4868410;29;20127;-77
2022/08/18 05:27:02;;;;;;;14.23;12.82;;;18.10;99.90;;;;;;4878067;29;20040;-77
2022/08/18 05:29:35;;;;;;;14.82;13.35;;;18.10;99.90;;;;;;4882560;29;20395;-80
2022/08/18 05:32:03;;;;;;;15.00;13.57;;;18.10;99.90;;;;;;4869913;29;20472;-82
2022/08/18 05:34:29;;;;;;;16.60;14.05;;;18.10;99.90;;;;;;4891156;29;20472;-82
2022/08/18 05:37:22;;;;;;;15.48;13.88;;;18.10;99.90;;;;;;4875720;29;20033;-81
2022/08/18 05:39:54;;;;;;;;;;;18.10;99.90;;;;;;4861675;29;20133;-81
2022/08/18 05:42:21;;;;;;;16.33;14.57;;;18.10;99.90;;;;;;4866946;29;19926;-82
2022/08/18 05:44:50;;;;;;;17.75;15.90;;;18.10;99.90;;;;;;4881894;29;20048;-83
2022/08/18 05:47:29;;;;;;;20.17;15.63;;;18.20;99.90;;;;;;4860242;29;20518;-82
2022/08/18 05:50:01;;;;;;;18.23;15.40;;;18.20;99.90;;;;;;4876112;29;20132;-82
2022/08/18 05:52:56;;;;;;;18.42;16.48;;;18.20;99.90;;;;;;4875688;29;20086;-82
2022/08/18 05:58:41;;;;;;;16.27;14.63;;;18.30;99.90;;;;;;4875382;29;20055;-82
2022/08/18 06:01:22;;;;;;;16.40;14.80;;;18.40;99.90;;;;;;4869646;29;20036;-82
2022/08/18 06:03:51;;;;;;;16.00;14.43;;;18.40;99.90;;;;;;4870759;29;20049;-82
2022/08/18 06:06:21;;;;;;;15.50;14.00;;;18.40;99.90;;;;;;4863445;29;20052;-82
2022/08/18 06:09:09;;;;;;;16.02;14.43;;;18.50;99.90;;;;;;4863381;29;20045;-81
2022/08/18 06:11:35;;;;;;;14.65;13.20;;;18.40;99.90;;;;;;4883761;29;20394;-83
2022/08/18 06:14:00;;;;;;;15.15;13.75;;;18.50;99.90;;;;;;4881398;29;20039;-82
2022/08/18 06:16:35;;;;;;;14.18;12.63;;;18.50;99.90;;;;;;4879221;29;20043;-84
2022/08/18 06:19:24;;;;;;;14.82;13.40;;;18.50;99.90;;;;;;4862416;29;20048;-79
2022/08/18 06:22:00;;;;;;;14.55;13.05;;;18.50;99.90;;;;;;4877794;29;20037;-84
2022/08/18 06:25:00;;;;;;;15.20;13.80;;;18.50;99.90;;;;;;4861268;29;20045;-82
2022/08/18 06:27:38;;;;;;;14.77;13.38;;;18.60;99.90;;;;;;4858184;29;20101;-82
2022/08/18 06:30:18;;;;;;;14.25;12.80;;;18.70;99.90;;;;;;4865813;29;20069;-81
2022/08/18 06:33:09;;;;;;;15.55;14.15;;;18.70;99.90;;;;;;4885295;29;20053;-81
2022/08/18 06:36:01;;;;;;;14.52;13.13;;;18.80;99.90;;;;;;4877876;29;20088;-81
2022/08/18 06:38:55;;;;;;;13.70;12.30;;;18.90;99.90;;;;;;4867841;29;20391;-81
2022/08/18 06:41:36;;;;;;;13.00;11.80;;;19.00;99.90;;;;;;4876674;29;20040;-82
2022/08/18 06:44:09;;;;;;;13.02;11.73;;;19.00;99.90;;;;;;4877206;29;20513;-81
2022/08/18 06:46:44;;;;;;;12.23;11.13;;;19.00;99.90;;;;;;4877211;29;20100;-82
2022/08/18 06:49:19;;;;;;;12.52;11.27;;;19.00;99.90;;;;;;4877705;29;20052;-82
2022/08/18 06:51:45;;;;;;;12.48;11.00;;;19.00;99.90;;;;;;4871532;29;20401;-81
2022/08/18 06:54:19;;;;;;;12.05;10.95;;;19.00;99.90;;;;;;4862887;29;20032;-81
2022/08/18 06:56:51;;;;;;;11.95;10.80;;;19.00;99.90;;;;;;4863217;29;20431;-82
2022/08/18 06:59:27;;;;;;;12.18;10.88;;;19.00;99.90;;;;;;4876520;29;20399;-82
2022/08/18 07:02:13;;;;;;;11.25;10.25;;;19.00;99.90;;;;;;4878447;29;20117;-81
2022/08/18 07:04:43;;;;;;;10.95;9.85;;;19.00;99.90;;;;;;4878393;29;20048;-82
2022/08/18 07:07:28;;;;;;;10.55;9.55;;;19.00;99.90;;;;;;4877919;29;20063;-82
2022/08/18 07:09:53;;;;;;;9.98;9.07;;;19.00;99.90;;;;;;4878143;29;20048;-80
2022/08/18 07:12:23;;;;;;;10.60;9.63;;;19.00;99.90;;;;;;4878214;29;20045;-81
2022/08/18 07:14:59;;;;;;;10.27;9.38;;;19.10;99.90;;;;;;4862579;29;20049;-81
2022/08/18 07:17:32;;;;;;;10.15;9.15;;;19.10;99.90;;;;;;4877827;29;20171;-82
2022/08/18 07:19:57;;;;;;;;;;;19.10;99.90;;;;;;4891017;29;20045;-81
2022/08/18 07:22:23;;;;;;;9.38;8.57;;;19.20;99.90;;;;;;4877568;29;19980;-81
2022/08/18 07:24:55;;;;;;;9.85;8.82;;;19.20;99.90;;;;;;4862338;29;20049;-80
2022/08/18 07:27:44;;;;;;;9.27;8.57;;;19.30;99.90;;;;;;4877545;29;20045;-81
2022/08/18 07:30:23;;;;;;;10.13;9.20;;;19.40;99.90;;;;;;4862340;29;20048;-81
2022/08/18 07:32:58;;;;;;;9.43;8.52;;;19.40;99.90;;;;;;4861395;29;20045;-81
2022/08/18 07:35:38;;;;;;;9.73;8.82;;;19.50;99.90;;;;;;4862223;29;20052;-81
2022/08/18 07:38:14;;;;;;;9.60;8.70;;;19.50;99.90;;;;;;4877382;29;20060;-81
2022/08/18 07:40:53;;;;;;;9.75;8.93;;;19.50;99.90;;;;;;4862188;29;20104;-81
2022/08/18 07:43:21;;;;;;;9.50;8.70;;;19.60;99.90;;;;;;4877078;29;20048;-81
2022/08/18 07:45:46;;;;;;;9.63;8.82;;;19.60;99.90;;;;;;4877860;29;20182;-81
2022/08/18 07:48:22;;;;;;;9.43;8.57;;;19.70;99.90;;;;;;4877363;29;20522;-81
2022/08/18 07:50:51;;;;;;;9.90;8.93;;;19.80;99.90;;;;;;4877875;29;20037;-81
2022/08/18 07:53:35;;;;;;;8.75;7.95;;;20.00;99.90;;;;;;4876632;29;20060;-81
2022/08/18 07:56:14;;;;;;;9.00;8.20;;;20.00;99.90;;;;;;4862013;29;20040;-81
2022/08/18 07:58:55;;;;;;;7.70;6.95;;;20.00;99.90;;;;;;4861598;29;20045;-81
2022/08/18 08:01:25;;;;;;;7.93;7.22;;;20.10;99.90;;;;;;4860265;29;20041;-81
2022/08/18 08:04:15;;;;;;;8.10;7.40;;;20.10;99.90;;;;;;4861867;29;20041;-81
2022/08/18 08:06:47;;;;;;;9.70;8.70;;;20.20;99.90;;;;;;4877323;29;20045;-81
2022/08/18 08:09:15;;;;;;;7.80;6.93;;;20.40;99.90;;;;;;4860807;29;20052;-80
2022/08/18 08:11:50;;;;;;;7.38;6.68;;;20.50;99.90;;;;;;4860927;29;20044;-81
2022/08/18 08:14:34;;;;;;;6.55;5.95;;;20.60;99.90;;;;;;4877482;29;20049;-81
2022/08/18 08:17:22;;;;;;;6.50;6.00;;;20.60;99.90;;;;;;4861635;29;20048;-81
2022/08/18 08:20:03;;;;;;;6.38;5.78;;;20.60;99.90;;;;;;4875641;29;20056;-81
2022/08/18 08:22:57;;;;;;;7.25;6.57;;;20.60;99.90;;;;;;4861568;29;20045;-81
2022/08/18 08:25:35;;;;;;;6.60;6.00;;;20.70;99.90;;;;;;4861660;29;20056;-80
2022/08/18 08:28:28;;;;;;;5.95;5.40;;;20.80;99.90;;;;;;4875859;29;21943;-80
2022/08/18 08:31:23;;;;;;;4.78;4.30;;;20.80;99.90;;;;;;4877024;29;20073;-81
2022/08/18 08:34:17;;;;;;;4.53;4.13;;;21.00;99.90;;;;;;4876995;29;20040;-80
2022/08/18 08:36:45;;;;;;;3.67;3.30;;;21.10;99.90;;;;;;4875668;29;20053;-81
2022/08/18 08:39:30;;;;;;;4.45;4.05;;;21.40;99.90;;;;;;4876551;29;20108;-80
2022/08/18 08:42:06;;;;;;;4.63;4.05;;;21.70;99.90;;;;;;4858534;29;20494;-80
2022/08/18 08:44:46;;;;;;;3.10;2.80;;;22.50;99.90;;;;;;4843170;29;20086;-80
2022/08/18 08:47:37;;;;;;;2.20;2.00;;;23.30;99.90;;;;;;4847550;29;20052;-80
2022/08/18 08:50:17;;;;;;;3.10;2.30;;;23.80;99.90;;;;;;4861226;29;20037;-80
2022/08/18 08:53:07;;;;;;;2.67;1.73;;;24.40;99.90;;;;;;4877111;29;20376;-80
2022/08/18 08:55:43;;;;;;;2.28;2.03;;;24.80;99.90;;;;;;4861390;29;20410;-80
2022/08/18 08:58:20;;;;;;;1.85;1.58;;;24.40;99.90;;;;;;4875885;29;20045;-80
2022/08/18 09:00:48;;;;;;;2.75;1.90;;;24.10;99.90;;;;;;4860931;29;20076;-79
2022/08/18 09:03:41;;;;;;;2.63;1.92;;;24.00;99.90;;;;;;4861526;29;20384;-79
2022/08/18 09:06:16;;;;;;;2.30;1.90;;;23.80;99.90;;;;;;4876911;29;20045;-79
2022/08/18 09:08:50;;;;;;;1.67;1.52;;;23.50;99.90;;;;;;4859890;29;20127;-80
2022/08/18 09:11:28;;;;;;;1.48;1.23;;;23.10;99.90;;;;;;4876765;29;20049;-79
2022/08/18 09:14:08;;;;;;;1.40;1.30;;;22.60;99.90;;;;;;4861177;29;20044;-79
2022/08/18 09:16:48;;;;;;;1.50;1.40;;;22.20;99.90;;;;;;4861051;29;20041;-79
2022/08/18 09:19:23;;;;;;;1.90;1.40;;;21.80;99.90;;;;;;4860697;29;20072;-79
2022/08/18 09:21:59;;;;;;;1.35;1.25;;;21.80;99.90;;;;;;4860872;29;20051;-80
2022/08/18 09:24:37;;;;;;;1.88;1.30;;;22.20;99.90;;;;;;4876525;29;20041;-80
2022/08/18 09:27:34;;;;;;;2.35;1.50;;;22.80;99.90;;;;;;4876187;29;20044;-79
2022/08/18 09:30:03;;;;;;;1.58;1.48;;;23.40;99.90;;;;;;4862182;29;20076;-80
2022/08/18 09:32:56;;;;;;;1.60;1.40;;;23.80;99.90;;;;;;4879940;29;20045;-81
2022/08/18 09:35:43;;;;;;;2.28;1.55;;;24.00;99.90;;;;;;4878281;29;20418;-80
2022/08/18 09:41:31;;;;;;;1.42;1.30;;;24.20;99.90;;;;;;4879919;29;20575;-79
2022/08/18 09:44:09;;;;;;;1.65;1.50;;;24.30;99.90;;;;;;4880482;29;20053;-80
2022/08/18 09:46:47;;;;;;;2.85;1.58;;;24.60;99.90;;;;;;4879992;29;20553;-80
2022/08/18 09:49:21;;;;;;;2.20;1.60;;;24.80;99.90;;;;;;4874241;29;20080;-79
2022/08/18 09:51:49;;;;;;;1.20;1.10;;;25.20;99.90;;;;;;4864141;29;20037;-81
2022/08/18 09:54:19;;;;;;;1.23;0.80;;;25.40;99.90;;;;;;4880053;29;20044;-80
2022/08/18 09:56:50;;;;;;;1.35;0.80;;;25.10;99.90;;;;;;4879670;29;20040;-80
2022/08/18 09:59:31;;;;;;;0.63;0.63;;;24.70;99.90;;;;;;4878957;29;20041;-80
2022/08/18 10:01:59;;;;;;;2.67;1.08;;;24.20;99.90;;;;;;4864362;29;20045;-80
2022/08/18 10:04:30;;;;;;;1.08;1.00;;;23.80;99.90;;;;;;4879778;29;20044;-79
2022/08/18 10:07:35;;;;;;;1.20;1.10;;;23.40;99.90;;;;;;4863623;29;20056;-81
2022/08/18 10:10:19;;;;;;;2.08;1.10;;;23.20;99.90;;;;;;4891898;29;20665;-80
2022/08/18 10:13:03;;;;;;;1.75;1.23;;;22.90;99.90;;;;;;4891980;29;20073;-80
2022/08/18 10:15:38;;;;;;;2.50;1.23;;;22.80;99.90;;;;;;4891916;29;20077;-79
2022/08/18 10:18:16;;;;;;;1.83;1.10;;;22.60;99.90;;;;;;4893541;29;20045;-80
2022/08/18 10:21:18;;;;;;;0.95;0.88;;;22.50;99.90;;;;;;4879445;29;20384;-79
2022/08/18 10:24:12;;;;;;;1.02;0.98;;;22.50;99.90;;;;;;4879091;29;20041;-79
2022/08/18 10:26:41;;;;;;;1.13;1.02;;;22.50;99.90;;;;;;4876997;29;20056;-79
2022/08/18 10:29:10;;;;;;;1.63;1.10;;;22.70;99.90;;;;;;4863334;29;20498;-78
2022/08/18 10:31:54;;;;;;;0.70;0.70;;;22.90;99.90;;;;;;4879114;29;20048;-79
2022/08/18 10:34:40;;;;;;;1.02;0.90;;;23.00;99.90;;;;;;4878716;29;20049;-79
2022/08/18 10:37:46;;;;;;;1.25;0.80;;;23.10;99.90;;;;;;4857410;29;20036;-79
2022/08/18 10:40:21;;;;;;;1.13;0.90;;;23.20;99.90;;;;;;4863331;29;20072;-79
2022/08/18 10:43:00;;;;;;;0.88;0.80;;;23.50;99.90;;;;;;4862585;29;20120;-79
2022/08/18 10:45:33;;;;;;;1.75;0.80;;;23.80;99.90;;;;;;4862913;29;20080;-79
2022/08/18 10:48:27;;;;;;;0.85;0.80;;;24.10;99.90;;;;;;4860416;29;20490;-79
2022/08/18 10:51:14;;;;;;;1.00;0.90;;;24.30;99.90;;;;;;4878654;29;20033;-79
2022/08/18 10:54:11;;;;;;;0.77;0.77;;;24.70;99.90;;;;;;4878906;29;20052;-79
2022/08/18 10:56:53;;;;;;;0.70;0.70;;;24.90;99.90;;;;;;4860850;29;20084;-78
2022/08/18 10:59:51;;;;;;;1.02;0.70;;;25.10;99.90;;;;;;4878629;29;20041;-79
2022/08/18 11:02:26;;;;;;;0.80;0.80;;;25.30;99.90;;;;;;4863040;29;20113;-79
2022/08/18 11:04:54;;;;;;;0.73;0.70;;;25.60;99.90;;;;;;4862568;29;20457;-81
2022/08/18 11:07:26;;;;;;;0.85;0.70;;;25.90;99.90;;;;;;4878019;29;20057;-80
2022/08/18 11:09:55;;;;;;;0.93;0.70;;;25.90;99.90;;;;;;4877644;29;20033;-79
2022/08/18 11:12:39;;;;;;;0.80;0.70;;;25.80;99.90;;;;;;4862868;29;20040;-79
2022/08/18 11:15:19;;;;;;;0.60;0.60;;;25.70;99.90;;;;;;4859499;29;20085;-80
2022/08/18 11:18:14;;;;;;;0.60;0.60;;;25.50;99.90;;;;;;4892377;29;20037;-79
2022/08/18 11:20:41;;;;;;;0.93;0.68;;;25.30;99.90;;;;;;4878262;29;20052;-79
2022/08/18 11:23:13;;;;;;;1.20;0.80;;;25.10;99.90;;;;;;4877986;29;20048;-79
2022/08/18 11:25:40;;;;;;;1.83;0.70;;;24.80;99.90;;;;;;4852303;29;20080;-80
2022/08/18 11:28:22;;;;;;;1.00;0.90;;;24.40;99.90;;;;;;4877550;29;20076;-80
2022/08/18 11:30:52;;;;;;;1.48;0.75;;;24.00;99.90;;;;;;4877448;29;20041;-79
2022/08/18 11:33:20;;;;;;;1.17;0.70;;;23.50;99.90;;;;;;4877764;29;20060;-79
2022/08/18 11:35:50;;;;;;;0.90;0.80;;;23.30;99.90;;;;;;4877819;29;20041;-79
2022/08/18 11:38:20;;;;;;;1.00;0.80;;;23.10;99.90;;;;;;4877845;29;20045;-79
2022/08/18 11:40:50;;;;;;;1.05;0.70;;;23.00;99.90;;;;;;4862290;29;20522;-79
2022/08/18 11:43:19;;;;;;;1.08;0.77;;;22.90;99.90;;;;;;4877923;29;20504;-79
2022/08/18 11:45:45;;;;;;;1.02;0.90;;;22.90;99.90;;;;;;4877784;29;20040;-79
2022/08/18 11:48:14;;;;;;;1.02;0.80;;;22.90;99.90;;;;;;4877510;29;20093;-79
2022/08/18 11:50:54;;;;;;;1.23;1.00;;;23.00;99.90;;;;;;4862178;29;20045;-80
2022/08/18 11:53:35;;;;;;;1.95;0.80;;;23.10;99.90;;;;;;4873022;29;20033;-80
2022/08/18 11:56:13;;;;;;;1.52;0.93;;;23.10;99.90;;;;;;4877413;29;20097;-80
2022/08/18 11:58:48;;;;;;;1.27;0.80;;;23.10;99.90;;;;;;4877471;29;20439;-80
2022/08/18 12:01:32;;;;;;;2.00;1.15;;;23.10;99.90;;;;;;4877390;29;20055;-80
2022/08/18 12:04:19;;;;;;;1.23;1.00;;;23.30;99.90;;;;;;4862231;29;20238;-79
2022/08/18 12:07:05;;;;;;;1.70;1.10;;;23.50;99.90;;;;;;4877617;29;20045;-80
2022/08/18 12:10:07;;;;;;;1.77;1.08;;;23.60;99.90;;;;;;4877336;29;20557;-79
2022/08/18 12:12:42;;;;;;;1.10;1.00;;;23.70;99.90;;;;;;4877447;29;20048;-79
2022/08/18 12:15:11;;;;;;;1.45;0.90;;;23.80;99.90;;;;;;4877045;29;20045;-79
2022/08/18 12:17:37;;;;;;;1.48;0.70;;;24.30;99.90;;;;;;4861536;29;20040;-80
2022/08/18 12:20:07;;;;;;;1.15;0.98;;;24.90;99.90;;;;;;4861852;29;20045;-80
2022/08/18 12:22:35;;;;;;;1.15;0.73;;;25.70;99.90;;;;;;4876838;29;20077;-82
2022/08/18 12:25:02;;;;;;;1.60;0.80;;;26.40;99.90;;;;;;4873889;29;20034;-81
2022/08/18 12:27:30;;;;;;;1.00;0.70;;;26.50;99.90;;;;;;4858468;29;20056;-81
2022/08/18 12:29:59;;;;;;;0.95;0.70;;;26.30;99.90;;;;;;4843150;29;20128;-81
2022/08/18 12:32:27;;;;;;;0.80;0.73;;;26.10;99.90;;;;;;4872602;29;20117;-80
2022/08/18 12:34:53;;;;;;;0.88;0.80;;;26.20;99.90;;;;;;4876815;29;20072;-81
2022/08/18 12:37:23;;;;;;;1.00;0.80;;;26.20;99.90;;;;;;4876745;29;20526;-81
2022/08/18 12:39:49;;;;;;;1.60;0.90;;;26.30;99.90;;;;;;4876837;29;20049;-80
2022/08/18 12:42:14;;;;;;;1.10;0.98;;;26.30;99.90;;;;;;4876774;29;20105;-81
2022/08/18 12:44:40;;;;;;;1.38;1.00;;;26.50;99.90;;;;;;4876883;29;20581;-81
2022/08/18 12:47:11;;;;;;;2.33;0.95;;;26.60;98.70;;;;;;4876687;29;20129;-80
2022/08/18 12:49:37;;;;;;;0.85;0.60;;;26.50;97.50;;;;;;4876363;29;20177;-80
2022/08/18 12:52:04;;;;;;;1.30;1.17;;;26.60;99.90;;;;;;4876856;29;20538;-80
2022/08/18 12:54:31;;;;;;;1.30;0.82;;;26.80;99.90;;;;;;4877030;29;20641;-79
2022/08/18 12:56:57;;;;;;;1.40;1.00;;;27.20;99.90;;;;;;4876534;29;20093;-79
2022/08/18 13:20:24;;;;;;;1.10;1.00;;;26.50;93.40;;;;;;4901717;29;20087;-78
2022/08/18 13:23:46;;;;;;;0.90;0.90;;;26.60;97.60;;;;;;4827470;29;20133;-79
2022/08/18 13:27:09;;;;;;;;;;;;;;;;;;;;;
2022/08/18 13:31:08;;;;;;;;;;;;;;;;;;;;;
2022/08/18 13:34:38;;;;;;;0.65;0.63;;;26.90;86.80;;;;;;4796995;29;20539;-79
2022/08/18 13:38:03;;;;;;;1.00;0.77;;;26.70;90.60;;;;;;4818051;29;20121;-79
2022/08/18 13:44:38;;;;;;;0.80;0.80;;;26.70;85.30;;;;;;4774932;29;20416;-79
2022/08/18 13:47:24;;;;;;;0.70;0.70;;;26.60;89.70;;;;;;4769010;30;20120;-78
2022/08/18 13:50:03;;;;;;;1.00;0.90;;;26.80;89.10;;;;;;4768544;30;20095;-79